sensor_id;sensor_type;location;lat;lon;timestamp;P1;durP1;ratioP1;P2;durP2;ratioP2
9384;SDS011;4732;49.340;10.886;2023-03-03T04:01:29;25.63;;;16.13;;
9384;SDS011;4732;49.340;10.886;2023-03-03T04:03:55;24.87;;;16.37;;
9384;SDS011;4732;49.340;10.886;2023-03-03T04:06:20;26.20;;;16.07;;
9384;SDS011;4732;49.340;10.886;2023-03-03T04:08:46;28.30;;;16.87;;
9384;SDS011;4732;49.340;10.886;2023-03-03T04:11:12;23.20;;;15.47;;
9384;SDS011;4732;49.340;10.886;2023-03-03T04:13:37;21.60;;;14.73;;
9384;SDS011;4732;49.340;10.886;2023-03-03T04:16:03;25.90;;;16.27;;
9384;SDS011;4732;49.340;10.886;2023-03-03T04:18:28;27.43;;;16.30;;
9384;SDS011;4732;49.340;10.886;2023-03-03T04:20:54;25.83;;;16.67;;
9384;SDS011;4732;49.340;10.886;2023-03-03T04:23:20;25.17;;;16.73;;
9384;SDS011;4732;49.340;10.886;2023-03-03T04:25:46;28.40;;;16.10;;
9384;SDS011;4732;49.340;10.886;2023-03-03T04:28:13;25.33;;;15.73;;
9384;SDS011;4732;49.340;10.886;2023-03-03T04:30:39;24.03;;;14.87;;
9384;SDS011;4732;49.340;10.886;2023-03-03T04:33:05;27.23;;;15.93;;
9384;SDS011;4732;49.340;10.886;2023-03-03T04:35:30;26.13;;;16.53;;
9384;SDS011;4732;49.340;10.886;2023-03-03T04:37:56;27.70;;;16.10;;
9384;SDS011;4732;49.340;10.886;2023-03-03T04:40:21;29.73;;;17.50;;
9384;SDS011;4732;49.340;10.886;2023-03-03T04:42:47;30.83;;;17.00;;
9384;SDS011;4732;49.340;10.886;2023-03-03T04:45:12;23.13;;;16.07;;
9384;SDS011;4732;49.340;10.886;2023-03-03T04:47:38;24.33;;;15.53;;
9384;SDS011;4732;49.340;10.886;2023-03-03T04:50:04;27.27;;;16.47;;
9384;SDS011;4732;49.340;10.886;2023-03-03T04:52:31;28.27;;;17.40;;
9384;SDS011;4732;49.340;10.886;2023-03-03T04:54:56;23.37;;;15.63;;
9384;SDS011;4732;49.340;10.886;2023-03-03T04:57:22;25.33;;;14.10;;
9384;SDS011;4732;49.340;10.886;2023-03-03T04:59:48;24.40;;;15.80;;
9384;SDS011;4732;49.340;10.886;2023-03-03T05:02:13;23.03;;;14.37;;
9384;SDS011;4732;49.340;10.886;2023-03-03T05:04:39;25.87;;;14.93;;
9384;SDS011;4732;49.340;10.886;2023-03-03T05:07:05;26.87;;;16.57;;
9384;SDS011;4732;49.340;10.886;2023-03-03T05:09:30;24.70;;;15.80;;
9384;SDS011;4732;49.340;10.886;2023-03-03T05:11:56;25.20;;;15.33;;
9384;SDS011;4732;49.340;10.886;2023-03-03T05:14:21;25.60;;;15.60;;
9384;SDS011;4732;49.340;10.886;2023-03-03T05:16:47;23.83;;;15.23;;
9384;SDS011;4732;49.340;10.886;2023-03-03T05:19:13;26.27;;;15.77;;
9384;SDS011;4732;49.340;10.886;2023-03-03T05:21:38;27.00;;;16.37;;
9384;SDS011;4732;49.340;10.886;2023-03-03T05:24:06;27.13;;;16.53;;
9384;SDS011;4732;49.340;10.886;2023-03-03T05:26:36;23.93;;;15.00;;
9384;SDS011;4732;49.340;10.886;2023-03-03T05:29:02;25.70;;;15.67;;
9384;SDS011;4732;49.340;10.886;2023-03-03T05:31:28;23.83;;;14.57;;
9384;SDS011;4732;49.340;10.886;2023-03-03T05:33:53;26.37;;;15.80;;
9384;SDS011;4732;49.340;10.886;2023-03-03T05:36:19;23.37;;;14.93;;
9384;SDS011;4732;49.340;10.886;2023-03-03T05:38:45;23.07;;;14.47;;
9384;SDS011;4732;49.340;10.886;2023-03-03T05:41:10;24.73;;;15.63;;
9384;SDS011;4732;49.340;10.886;2023-03-03T05:43:36;23.60;;;14.60;;
9384;SDS011;4732;49.340;10.886;2023-03-03T05:46:02;27.83;;;15.47;;
9384;SDS011;4732;49.340;10.886;2023-03-03T05:48:27;26.03;;;15.33;;
9384;SDS011;4732;49.340;10.886;2023-03-03T05:50:53;24.77;;;14.53;;
9384;SDS011;4732;49.340;10.886;2023-03-03T05:53:21;25.50;;;15.40;;
9384;SDS011;4732;49.340;10.886;2023-03-03T05:55:47;26.07;;;15.63;;
9384;SDS011;4732;49.340;10.886;2023-03-03T05:58:13;24.53;;;16.07;;
9384;SDS011;4732;49.340;10.886;2023-03-03T06:00:38;29.43;;;17.03;;
9384;SDS011;4732;49.340;10.886;2023-03-03T06:03:04;23.87;;;15.33;;
9384;SDS011;4732;49.340;10.886;2023-03-03T06:05:30;23.07;;;15.40;;
9384;SDS011;4732;49.340;10.886;2023-03-03T06:07:55;27.77;;;16.23;;
9384;SDS011;4732;49.340;10.886;2023-03-03T06:10:21;28.47;;;16.87;;
9384;SDS011;4732;49.340;10.886;2023-03-03T06:12:46;27.03;;;15.37;;
9384;SDS011;4732;49.340;10.886;2023-03-03T06:15:12;25.17;;;15.40;;
9384;SDS011;4732;49.340;10.886;2023-03-03T06:17:38;23.60;;;15.37;;
9384;SDS011;4732;49.340;10.886;2023-03-03T06:20:04;25.57;;;16.77;;
9384;SDS011;4732;49.340;10.886;2023-03-03T06:22:30;25.37;;;15.70;;
9384;SDS011;4732;49.340;10.886;2023-03-03T06:24:56;26.20;;;15.90;;
9384;SDS011;4732;49.340;10.886;2023-03-03T06:27:22;22.90;;;14.67;;
9384;SDS011;4732;49.340;10.886;2023-03-03T06:29:47;29.07;;;16.73;;
9384;SDS011;4732;49.340;10.886;2023-03-03T06:32:13;26.63;;;16.47;;
9384;SDS011;4732;49.340;10.886;2023-03-03T06:34:38;25.03;;;15.67;;
9384;SDS011;4732;49.340;10.886;2023-03-03T06:37:04;24.83;;;16.10;;
9384;SDS011;4732;49.340;10.886;2023-03-03T06:39:30;45.93;;;29.33;;
9384;SDS011;4732;49.340;10.886;2023-03-03T06:41:56;31.40;;;19.40;;
9384;SDS011;4732;49.340;10.886;2023-03-03T06:44:21;26.43;;;17.30;;
9384;SDS011;4732;49.340;10.886;2023-03-03T06:46:47;25.30;;;15.37;;
9384;SDS011;4732;49.340;10.886;2023-03-03T06:49:12;24.67;;;15.37;;
9384;SDS011;4732;49.340;10.886;2023-03-03T06:51:38;28.83;;;16.00;;
9384;SDS011;4732;49.340;10.886;2023-03-03T06:56:41;31.30;;;18.80;;
9384;SDS011;4732;49.340;10.886;2023-03-03T06:59:13;28.20;;;17.17;;
9384;SDS011;4732;49.340;10.886;2023-03-03T07:01:43;29.77;;;16.67;;
9384;SDS011;4732;49.340;10.886;2023-03-03T07:04:12;29.90;;;19.57;;
9384;SDS011;4732;49.340;10.886;2023-03-03T07:06:39;27.90;;;17.33;;
9384;SDS011;4732;49.340;10.886;2023-03-03T07:09:08;29.23;;;17.20;;
9384;SDS011;4732;49.340;10.886;2023-03-03T07:11:44;30.13;;;17.43;;
9384;SDS011;4732;49.340;10.886;2023-03-03T07:14:13;28.90;;;17.33;;
9384;SDS011;4732;49.340;10.886;2023-03-03T07:16:42;38.70;;;23.83;;
9384;SDS011;4732;49.340;10.886;2023-03-03T07:19:18;31.00;;;18.17;;
9384;SDS011;4732;49.340;10.886;2023-03-03T07:21:47;28.20;;;16.77;;
9384;SDS011;4732;49.340;10.886;2023-03-03T07:24:25;28.73;;;17.50;;
9384;SDS011;4732;49.340;10.886;2023-03-03T07:29:36;28.70;;;17.40;;
9384;SDS011;4732;49.340;10.886;2023-03-03T07:32:07;30.33;;;18.27;;
9384;SDS011;4732;49.340;10.886;2023-03-03T07:34:47;34.23;;;18.97;;
9384;SDS011;4732;49.340;10.886;2023-03-03T07:40:05;27.93;;;17.70;;
9384;SDS011;4732;49.340;10.886;2023-03-03T07:43:01;33.57;;;19.10;;
9384;SDS011;4732;49.340;10.886;2023-03-03T07:48:34;34.20;;;19.77;;
9384;SDS011;4732;49.340;10.886;2023-03-03T07:51:04;32.30;;;19.30;;
9384;SDS011;4732;49.340;10.886;2023-03-03T07:53:36;31.03;;;19.90;;
9384;SDS011;4732;49.340;10.886;2023-03-03T07:56:02;36.33;;;21.07;;
9384;SDS011;4732;49.340;10.886;2023-03-03T07:58:39;36.30;;;20.63;;
9384;SDS011;4732;49.340;10.886;2023-03-03T08:04:15;38.23;;;22.43;;
9384;SDS011;4732;49.340;10.886;2023-03-03T08:06:54;35.57;;;21.43;;
9384;SDS011;4732;49.340;10.886;2023-03-03T08:09:31;42.87;;;23.70;;
9384;SDS011;4732;49.340;10.886;2023-03-03T08:14:30;37.57;;;22.77;;
9384;SDS011;4732;49.340;10.886;2023-03-03T08:17:00;41.00;;;23.33;;
9384;SDS011;4732;49.340;10.886;2023-03-03T08:19:26;35.53;;;21.90;;
9384;SDS011;4732;49.340;10.886;2023-03-03T08:21:59;44.30;;;25.67;;
9384;SDS011;4732;49.340;10.886;2023-03-03T08:24:33;42.07;;;24.20;;
9384;SDS011;4732;49.340;10.886;2023-03-03T08:26:58;41.60;;;25.03;;
9384;SDS011;4732;49.340;10.886;2023-03-03T08:29:24;41.97;;;24.23;;
9384;SDS011;4732;49.340;10.886;2023-03-03T08:31:49;41.83;;;23.73;;
9384;SDS011;4732;49.340;10.886;2023-03-03T08:34:15;39.63;;;24.90;;
9384;SDS011;4732;49.340;10.886;2023-03-03T08:36:40;45.10;;;25.97;;
9384;SDS011;4732;49.340;10.886;2023-03-03T08:39:06;42.07;;;24.50;;
9384;SDS011;4732;49.340;10.886;2023-03-03T08:41:33;42.20;;;25.50;;
9384;SDS011;4732;49.340;10.886;2023-03-03T08:43:58;43.73;;;25.83;;
9384;SDS011;4732;49.340;10.886;2023-03-03T08:46:24;41.40;;;23.83;;
9384;SDS011;4732;49.340;10.886;2023-03-03T08:48:49;43.53;;;24.97;;
9384;SDS011;4732;49.340;10.886;2023-03-03T08:51:15;41.00;;;24.73;;
9384;SDS011;4732;49.340;10.886;2023-03-03T08:53:40;38.43;;;24.67;;
9384;SDS011;4732;49.340;10.886;2023-03-03T08:56:06;42.23;;;24.20;;
9384;SDS011;4732;49.340;10.886;2023-03-03T08:58:32;41.17;;;24.13;;
9384;SDS011;4732;49.340;10.886;2023-03-03T09:00:58;39.13;;;22.80;;
9384;SDS011;4732;49.340;10.886;2023-03-03T09:03:23;37.37;;;23.70;;
9384;SDS011;4732;49.340;10.886;2023-03-03T09:05:49;43.40;;;24.13;;
9384;SDS011;4732;49.340;10.886;2023-03-03T09:08:14;38.17;;;25.33;;
9384;SDS011;4732;49.340;10.886;2023-03-03T09:10:40;42.27;;;24.70;;
9384;SDS011;4732;49.340;10.886;2023-03-03T09:13:09;41.23;;;24.47;;
9384;SDS011;4732;49.340;10.886;2023-03-03T09:15:39;41.87;;;24.23;;
9384;SDS011;4732;49.340;10.886;2023-03-03T09:18:13;42.03;;;25.67;;
9384;SDS011;4732;49.340;10.886;2023-03-03T09:20:44;36.80;;;22.93;;
9384;SDS011;4732;49.340;10.886;2023-03-03T09:28:46;36.93;;;22.67;;
9384;SDS011;4732;49.340;10.886;2023-03-03T09:31:35;38.33;;;24.00;;
9384;SDS011;4732;49.340;10.886;2023-03-03T09:34:48;36.67;;;22.63;;
9384;SDS011;4732;49.340;10.886;2023-03-03T09:37:29;37.97;;;22.63;;
9384;SDS011;4732;49.340;10.886;2023-03-03T09:40:00;37.10;;;22.90;;
9384;SDS011;4732;49.340;10.886;2023-03-03T09:47:59;38.37;;;24.20;;
9384;SDS011;4732;49.340;10.886;2023-03-03T10:05:43;36.03;;;21.97;;
9384;SDS011;4732;49.340;10.886;2023-03-03T10:11:18;34.67;;;22.27;;
9384;SDS011;4732;49.340;10.886;2023-03-03T10:13:52;32.20;;;21.10;;
9384;SDS011;4732;49.340;10.886;2023-03-03T10:16:46;33.60;;;20.57;;
9384;SDS011;4732;49.340;10.886;2023-03-03T10:24:41;32.43;;;20.20;;
9384;SDS011;4732;49.340;10.886;2023-03-03T10:30:12;33.60;;;21.80;;
9384;SDS011;4732;49.340;10.886;2023-03-03T10:47:04;35.67;;;20.73;;
9384;SDS011;4732;49.340;10.886;2023-03-03T11:04:24;33.20;;;20.53;;
9384;SDS011;4732;49.340;10.886;2023-03-03T11:07:28;34.90;;;22.03;;
9384;SDS011;4732;49.340;10.886;2023-03-03T11:10:16;32.43;;;20.73;;
9384;SDS011;4732;49.340;10.886;2023-03-03T11:13:04;34.57;;;22.53;;
9384;SDS011;4732;49.340;10.886;2023-03-03T11:18:33;34.87;;;21.97;;
9384;SDS011;4732;49.340;10.886;2023-03-03T11:21:06;35.00;;;21.50;;
9384;SDS011;4732;49.340;10.886;2023-03-03T11:31:47;30.83;;;20.40;;
9384;SDS011;4732;49.340;10.886;2023-03-03T11:39:32;34.17;;;21.20;;
9384;SDS011;4732;49.340;10.886;2023-03-03T11:42:08;32.07;;;21.40;;
9384;SDS011;4732;49.340;10.886;2023-03-03T11:44:49;29.87;;;19.77;;
9384;SDS011;4732;49.340;10.886;2023-03-03T11:47:41;32.57;;;20.13;;
9384;SDS011;4732;49.340;10.886;2023-03-03T11:50:37;32.30;;;20.93;;
9384;SDS011;4732;49.340;10.886;2023-03-03T11:53:35;29.77;;;20.70;;
9384;SDS011;4732;49.340;10.886;2023-03-03T11:56:07;30.23;;;19.90;;
9384;SDS011;4732;49.340;10.886;2023-03-03T11:58:43;39.00;;;20.17;;
9384;SDS011;4732;49.340;10.886;2023-03-03T12:09:42;27.97;;;18.97;;
9384;SDS011;4732;49.340;10.886;2023-03-03T12:12:17;29.73;;;19.60;;
9384;SDS011;4732;49.340;10.886;2023-03-03T12:26:01;26.60;;;19.03;;
9384;SDS011;4732;49.340;10.886;2023-03-03T12:28:36;28.30;;;18.63;;
9384;SDS011;4732;49.340;10.886;2023-03-03T12:34:03;27.43;;;18.23;;
9384;SDS011;4732;49.340;10.886;2023-03-03T12:36:56;26.40;;;17.50;;
9384;SDS011;4732;49.340;10.886;2023-03-03T12:44:56;24.03;;;16.97;;
9384;SDS011;4732;49.340;10.886;2023-03-03T12:47:56;24.33;;;17.40;;
9384;SDS011;4732;49.340;10.886;2023-03-03T12:55:51;25.55;;;17.52;;
9384;SDS011;4732;49.340;10.886;2023-03-03T13:01:12;27.05;;;18.25;;
9384;SDS011;4732;49.340;10.886;2023-03-03T13:04:09;27.13;;;17.77;;
9384;SDS011;4732;49.340;10.886;2023-03-03T13:15:34;24.80;;;17.58;;
9384;SDS011;4732;49.340;10.886;2023-03-03T13:18:18;28.27;;;18.80;;
9384;SDS011;4732;49.340;10.886;2023-03-03T13:23:57;26.60;;;19.23;;
9384;SDS011;4732;49.340;10.886;2023-03-03T13:26:30;26.33;;;18.15;;
9384;SDS011;4732;49.340;10.886;2023-03-03T13:29:14;23.95;;;16.65;;
9384;SDS011;4732;49.340;10.886;2023-03-03T13:31:48;26.08;;;18.63;;
9384;SDS011;4732;49.340;10.886;2023-03-03T13:39:39;27.27;;;18.60;;
9384;SDS011;4732;49.340;10.886;2023-03-03T13:42:25;27.95;;;19.05;;
9384;SDS011;4732;49.340;10.886;2023-03-03T13:45:15;31.13;;;19.92;;
9384;SDS011;4732;49.340;10.886;2023-03-03T13:47:51;24.52;;;18.00;;
9384;SDS011;4732;49.340;10.886;2023-03-03T13:50:39;28.25;;;18.83;;
9384;SDS011;4732;49.340;10.886;2023-03-03T13:56:03;22.05;;;16.90;;
9384;SDS011;4732;49.340;10.886;2023-03-03T14:01:40;23.00;;;15.90;;
9384;SDS011;4732;49.340;10.886;2023-03-03T14:04:41;25.38;;;16.27;;
9384;SDS011;4732;49.340;10.886;2023-03-03T14:07:18;23.17;;;15.98;;
9384;SDS011;4732;49.340;10.886;2023-03-03T14:09:55;22.10;;;16.30;;
9384;SDS011;4732;49.340;10.886;2023-03-03T14:15:38;23.63;;;16.45;;
9384;SDS011;4732;49.340;10.886;2023-03-03T14:20:47;22.52;;;15.93;;
9384;SDS011;4732;49.340;10.886;2023-03-03T14:23:18;25.08;;;16.10;;
9384;SDS011;4732;49.340;10.886;2023-03-03T14:28:41;22.70;;;15.07;;
9384;SDS011;4732;49.340;10.886;2023-03-03T14:31:25;23.23;;;15.00;;
9384;SDS011;4732;49.340;10.886;2023-03-03T14:34:02;20.27;;;14.50;;
9384;SDS011;4732;49.340;10.886;2023-03-03T14:36:30;20.10;;;14.23;;
9384;SDS011;4732;49.340;10.886;2023-03-03T14:38:58;21.67;;;15.80;;
9384;SDS011;4732;49.340;10.886;2023-03-03T14:41:35;21.90;;;14.52;;
9384;SDS011;4732;49.340;10.886;2023-03-03T14:46:59;23.23;;;15.20;;
9384;SDS011;4732;49.340;10.886;2023-03-03T14:49:32;20.83;;;14.13;;
9384;SDS011;4732;49.340;10.886;2023-03-03T14:52:01;22.08;;;14.65;;
9384;SDS011;4732;49.340;10.886;2023-03-03T14:54:36;18.20;;;13.65;;
9384;SDS011;4732;49.340;10.886;2023-03-03T14:59:39;18.63;;;13.38;;
9384;SDS011;4732;49.340;10.886;2023-03-03T15:04:44;16.73;;;12.65;;
9384;SDS011;4732;49.340;10.886;2023-03-03T15:09:58;21.52;;;12.90;;
9384;SDS011;4732;49.340;10.886;2023-03-03T15:17:33;18.67;;;13.50;;
9384;SDS011;4732;49.340;10.886;2023-03-03T15:23:07;20.10;;;13.02;;
9384;SDS011;4732;49.340;10.886;2023-03-03T15:25:56;17.25;;;11.98;;
9384;SDS011;4732;49.340;10.886;2023-03-03T15:33:59;20.73;;;12.83;;
9384;SDS011;4732;49.340;10.886;2023-03-03T15:42:31;17.73;;;11.33;;
9384;SDS011;4732;49.340;10.886;2023-03-03T15:50:39;18.30;;;11.00;;
9384;SDS011;4732;49.340;10.886;2023-03-03T15:54:16;16.47;;;11.10;;
9384;SDS011;4732;49.340;10.886;2023-03-03T15:56:43;20.63;;;11.00;;
9384;SDS011;4732;49.340;10.886;2023-03-03T15:59:18;16.97;;;10.73;;
9384;SDS011;4732;49.340;10.886;2023-03-03T16:01:54;19.27;;;10.37;;
9384;SDS011;4732;49.340;10.886;2023-03-03T16:04:47;17.10;;;10.40;;
9384;SDS011;4732;49.340;10.886;2023-03-03T16:10:20;16.83;;;9.90;;
9384;SDS011;4732;49.340;10.886;2023-03-03T16:18:11;12.67;;;8.67;;
9384;SDS011;4732;49.340;10.886;2023-03-03T16:20:54;14.53;;;9.50;;
9384;SDS011;4732;49.340;10.886;2023-03-03T16:23:46;14.23;;;8.63;;
9384;SDS011;4732;49.340;10.886;2023-03-03T16:31:48;17.70;;;10.03;;
9384;SDS011;4732;49.340;10.886;2023-03-03T16:34:20;13.57;;;8.63;;
9384;SDS011;4732;49.340;10.886;2023-03-03T16:37:03;16.10;;;9.23;;
9384;SDS011;4732;49.340;10.886;2023-03-03T16:39:52;13.43;;;8.80;;
9384;SDS011;4732;49.340;10.886;2023-03-03T16:42:30;12.57;;;8.67;;
9384;SDS011;4732;49.340;10.886;2023-03-03T16:50:38;13.47;;;8.73;;
9384;SDS011;4732;49.340;10.886;2023-03-03T16:53:26;12.23;;;8.03;;
9384;SDS011;4732;49.340;10.886;2023-03-03T17:02:01;13.73;;;8.90;;
9384;SDS011;4732;49.340;10.886;2023-03-03T17:04:40;12.40;;;8.00;;
9384;SDS011;4732;49.340;10.886;2023-03-03T17:07:41;12.40;;;7.93;;
9384;SDS011;4732;49.340;10.886;2023-03-03T17:13:01;14.30;;;9.37;;
9384;SDS011;4732;49.340;10.886;2023-03-03T17:18:12;11.70;;;7.97;;
9384;SDS011;4732;49.340;10.886;2023-03-03T17:20:45;14.67;;;8.30;;
9384;SDS011;4732;49.340;10.886;2023-03-03T17:28:36;14.27;;;8.90;;
9384;SDS011;4732;49.340;10.886;2023-03-03T17:31:39;13.83;;;8.50;;
9384;SDS011;4732;49.340;10.886;2023-03-03T17:39:47;14.83;;;8.87;;
9384;SDS011;4732;49.340;10.886;2023-03-03T17:45:22;15.30;;;8.97;;
9384;SDS011;4732;49.340;10.886;2023-03-03T17:47:52;12.73;;;8.57;;
9384;SDS011;4732;49.340;10.886;2023-03-03T17:50:55;15.07;;;9.47;;
9384;SDS011;4732;49.340;10.886;2023-03-03T17:59:18;12.77;;;7.83;;
9384;SDS011;4732;49.340;10.886;2023-03-03T18:02:07;13.30;;;8.13;;
9384;SDS011;4732;49.340;10.886;2023-03-03T18:10:51;13.20;;;8.10;;
9384;SDS011;4732;49.340;10.886;2023-03-03T18:13:50;13.30;;;8.23;;
9384;SDS011;4732;49.340;10.886;2023-03-03T18:16:52;12.60;;;8.33;;
9384;SDS011;4732;49.340;10.886;2023-03-03T18:21:57;16.17;;;9.43;;
9384;SDS011;4732;49.340;10.886;2023-03-03T18:24:52;13.57;;;9.23;;
9384;SDS011;4732;49.340;10.886;2023-03-03T18:35:23;14.33;;;9.67;;
9384;SDS011;4732;49.340;10.886;2023-03-03T18:37:49;16.20;;;8.80;;
9384;SDS011;4732;49.340;10.886;2023-03-03T18:42:56;15.03;;;9.73;;
9384;SDS011;4732;49.340;10.886;2023-03-03T18:50:30;18.03;;;9.60;;
9384;SDS011;4732;49.340;10.886;2023-03-03T18:53:20;17.90;;;11.50;;
9384;SDS011;4732;49.340;10.886;2023-03-03T19:05:50;20.67;;;12.07;;
9384;SDS011;4732;49.340;10.886;2023-03-03T19:13:34;20.17;;;11.33;;
9384;SDS011;4732;49.340;10.886;2023-03-03T19:16:03;18.57;;;11.80;;
9384;SDS011;4732;49.340;10.886;2023-03-03T19:18:33;18.67;;;11.87;;
9384;SDS011;4732;49.340;10.886;2023-03-03T19:21:02;17.63;;;10.90;;
9384;SDS011;4732;49.340;10.886;2023-03-03T19:23:32;17.47;;;10.67;;
9384;SDS011;4732;49.340;10.886;2023-03-03T19:26:18;15.70;;;9.87;;
9384;SDS011;4732;49.340;10.886;2023-03-03T19:28:48;12.93;;;8.60;;
9384;SDS011;4732;49.340;10.886;2023-03-03T19:31:20;14.60;;;9.17;;
9384;SDS011;4732;49.340;10.886;2023-03-03T19:33:54;15.17;;;9.17;;
9384;SDS011;4732;49.340;10.886;2023-03-03T19:36:28;16.97;;;10.17;;
9384;SDS011;4732;49.340;10.886;2023-03-03T19:41:36;14.77;;;10.10;;
9384;SDS011;4732;49.340;10.886;2023-03-03T19:44:30;15.13;;;9.67;;
9384;SDS011;4732;49.340;10.886;2023-03-03T19:50:17;12.40;;;8.83;;
9384;SDS011;4732;49.340;10.886;2023-03-03T19:52:49;12.17;;;8.43;;
9384;SDS011;4732;49.340;10.886;2023-03-03T19:55:22;14.60;;;8.37;;
9384;SDS011;4732;49.340;10.886;2023-03-03T20:03:43;13.10;;;8.30;;
9384;SDS011;4732;49.340;10.886;2023-03-03T20:06:21;14.43;;;7.83;;
9384;SDS011;4732;49.340;10.886;2023-03-03T20:09:12;15.67;;;7.80;;
9384;SDS011;4732;49.340;10.886;2023-03-03T20:14:41;14.13;;;7.90;;
9384;SDS011;4732;49.340;10.886;2023-03-03T20:17:23;9.33;;;5.97;;
9384;SDS011;4732;49.340;10.886;2023-03-03T20:23:07;11.57;;;7.87;;
9384;SDS011;4732;49.340;10.886;2023-03-03T20:28:10;12.70;;;7.80;;
9384;SDS011;4732;49.340;10.886;2023-03-03T20:34:14;10.87;;;6.77;;
9384;SDS011;4732;49.340;10.886;2023-03-03T20:36:59;10.17;;;7.20;;
9384;SDS011;4732;49.340;10.886;2023-03-03T20:39:57;10.03;;;6.53;;
9384;SDS011;4732;49.340;10.886;2023-03-03T20:42:30;11.60;;;7.50;;
9384;SDS011;4732;49.340;10.886;2023-03-03T20:53:25;14.53;;;7.67;;
9384;SDS011;4732;49.340;10.886;2023-03-03T20:58:45;11.60;;;8.13;;
9384;SDS011;4732;49.340;10.886;2023-03-03T21:01:21;14.03;;;8.33;;
9384;SDS011;4732;49.340;10.886;2023-03-03T21:03:55;16.03;;;10.23;;
9384;SDS011;4732;49.340;10.886;2023-03-03T21:06:41;12.37;;;8.07;;
9384;SDS011;4732;49.340;10.886;2023-03-03T21:09:07;11.77;;;7.90;;
9384;SDS011;4732;49.340;10.886;2023-03-03T21:11:46;13.17;;;7.80;;
9384;SDS011;4732;49.340;10.886;2023-03-03T21:14:32;11.77;;;7.77;;
9384;SDS011;4732;49.340;10.886;2023-03-03T21:16:59;11.03;;;6.97;;
9384;SDS011;4732;49.340;10.886;2023-03-03T21:19:33;11.77;;;7.37;;
9384;SDS011;4732;49.340;10.886;2023-03-03T21:22:00;13.13;;;8.00;;
9384;SDS011;4732;49.340;10.886;2023-03-03T21:25:10;16.87;;;9.57;;
9384;SDS011;4732;49.340;10.886;2023-03-03T21:27:25;13.83;;;9.37;;
9384;SDS011;4732;49.340;10.886;2023-03-03T21:32:35;14.30;;;8.03;;
9384;SDS011;4732;49.340;10.886;2023-03-03T21:35:03;12.40;;;7.83;;
9384;SDS011;4732;49.340;10.886;2023-03-03T21:37:42;14.13;;;8.47;;
9384;SDS011;4732;49.340;10.886;2023-03-03T21:40:14;16.73;;;9.67;;
9384;SDS011;4732;49.340;10.886;2023-03-03T21:42:47;13.97;;;8.90;;
9384;SDS011;4732;49.340;10.886;2023-03-03T21:45:14;13.67;;;8.37;;
9384;SDS011;4732;49.340;10.886;2023-03-03T21:47:40;15.63;;;8.90;;
9384;SDS011;4732;49.340;10.886;2023-03-03T21:50:06;17.87;;;10.93;;
9384;SDS011;4732;49.340;10.886;2023-03-03T21:52:33;16.53;;;11.33;;
9384;SDS011;4732;49.340;10.886;2023-03-03T21:54:58;16.30;;;11.23;;
9384;SDS011;4732;49.340;10.886;2023-03-03T21:57:24;17.27;;;11.33;;
9384;SDS011;4732;49.340;10.886;2023-03-03T21:59:50;16.73;;;11.27;;
9384;SDS011;4732;49.340;10.886;2023-03-03T22:02:16;15.63;;;10.57;;
9384;SDS011;4732;49.340;10.886;2023-03-03T22:04:41;15.90;;;10.23;;
9384;SDS011;4732;49.340;10.886;2023-03-03T22:07:07;16.80;;;10.40;;
9384;SDS011;4732;49.340;10.886;2023-03-03T22:09:33;16.37;;;10.87;;
9384;SDS011;4732;49.340;10.886;2023-03-03T22:12:00;20.77;;;12.37;;
9384;SDS011;4732;49.340;10.886;2023-03-03T22:14:25;16.30;;;10.30;;
9384;SDS011;4732;49.340;10.886;2023-03-03T22:16:51;15.17;;;10.60;;
9384;SDS011;4732;49.340;10.886;2023-03-03T22:19:16;15.57;;;9.93;;
9384;SDS011;4732;49.340;10.886;2023-03-03T22:21:42;16.93;;;9.73;;
9384;SDS011;4732;49.340;10.886;2023-03-03T22:24:08;14.27;;;8.80;;
9384;SDS011;4732;49.340;10.886;2023-03-03T22:26:33;15.27;;;9.20;;
9384;SDS011;4732;49.340;10.886;2023-03-03T22:28:59;15.00;;;9.97;;
9384;SDS011;4732;49.340;10.886;2023-03-03T22:31:25;17.80;;;9.87;;
9384;SDS011;4732;49.340;10.886;2023-03-03T22:33:51;15.70;;;9.40;;
9384;SDS011;4732;49.340;10.886;2023-03-03T22:36:16;16.30;;;9.70;;
9384;SDS011;4732;49.340;10.886;2023-03-03T22:38:45;16.23;;;10.97;;
9384;SDS011;4732;49.340;10.886;2023-03-03T22:41:11;18.73;;;11.03;;
9384;SDS011;4732;49.340;10.886;2023-03-03T22:43:37;18.43;;;11.00;;
9384;SDS011;4732;49.340;10.886;2023-03-03T22:46:03;16.90;;;11.43;;
9384;SDS011;4732;49.340;10.886;2023-03-03T22:48:28;14.00;;;8.73;;
9384;SDS011;4732;49.340;10.886;2023-03-03T22:50:55;14.67;;;9.10;;
9384;SDS011;4732;49.340;10.886;2023-03-03T22:53:21;16.87;;;9.83;;
9384;SDS011;4732;49.340;10.886;2023-03-03T22:55:47;14.33;;;9.83;;
9384;SDS011;4732;49.340;10.886;2023-03-03T22:58:12;16.00;;;10.17;;
9384;SDS011;4732;49.340;10.886;2023-03-03T23:00:38;16.90;;;10.60;;
9384;SDS011;4732;49.340;10.886;2023-03-03T23:03:05;16.50;;;10.03;;
9384;SDS011;4732;49.340;10.886;2023-03-03T23:05:32;16.90;;;9.40;;
9384;SDS011;4732;49.340;10.886;2023-03-03T23:07:57;14.73;;;9.60;;
9384;SDS011;4732;49.340;10.886;2023-03-03T23:10:23;14.50;;;9.10;;
9384;SDS011;4732;49.340;10.886;2023-03-03T23:12:49;14.53;;;8.73;;
